Time;durP1;ratioP1;P1;durP2;ratioP2;P2;SDS_P1;SDS_P2;PMS_P1;PMS_P2;Temp;Humidity;BMP_temperature;BMP_pressure;BME280_temperature;BME280_humidity;BME280_pressure;Samples;Min_cycle;Max_cycle;Signal;HPM_P1;HPM_P2
2023/05/04 00:01:37;;;;;;;1.77;0.90;;;18.20;96.70;;;;;;5112480;27;20036;-71
2023/05/04 00:04:06;;;;;;;0.80;0.77;;;18.20;96.70;;;;;;5111154;27;20042;-71
2023/05/04 00:06:37;;;;;;;2.35;0.95;;;18.10;96.70;;;;;;5112481;27;20474;-71
2023/05/04 00:09:06;;;;;;;2.35;1.13;;;17.90;96.70;;;;;;5113376;27;20127;-71
2023/05/04 00:11:41;;;;;;;1.00;0.90;;;17.90;96.70;;;;;;5113702;27;20040;-71
2023/05/04 00:14:10;;;;;;;1.00;0.90;;;17.90;96.70;;;;;;5111825;27;20035;-71
2023/05/04 00:16:39;;;;;;;1.85;0.95;;;17.90;96.70;;;;;;5111034;27;20180;-71
2023/05/04 00:19:08;;;;;;;1.67;1.10;;;17.90;96.70;;;;;;5093073;27;20104;-71
2023/05/04 00:21:37;;;;;;;1.08;0.90;;;17.90;96.70;;;;;;5109004;27;20046;-71
2023/05/04 00:24:07;;;;;;;0.93;0.80;;;17.90;96.70;;;;;;5111274;27;20071;-71
2023/05/04 00:26:37;;;;;;;12.13;1.20;;;17.90;96.70;;;;;;5109538;27;20055;-71
2023/05/04 00:29:09;;;;;;;1.00;0.90;;;17.90;96.70;;;;;;5109569;27;20044;-71
2023/05/04 00:31:38;;;;;;;1.05;0.90;;;17.90;96.70;;;;;;5093402;27;20103;-71
2023/05/04 00:34:09;;;;;;;1.52;0.80;;;17.90;96.70;;;;;;5093139;27;20043;-71
2023/05/04 00:36:37;;;;;;;2.00;1.10;;;18.00;96.70;;;;;;5097371;27;20036;-72
2023/05/04 00:39:05;;;;;;;3.13;1.00;;;18.00;96.70;;;;;;5067144;28;20143;-72
2023/05/04 00:41:34;;;;;;;1.08;0.98;;;18.10;96.70;;;;;;5076687;28;20036;-72
2023/05/04 00:44:04;;;;;;;1.08;0.90;;;18.10;96.70;;;;;;5076400;28;20039;-71
2023/05/04 00:46:33;;;;;;;2.65;1.10;;;18.10;96.70;;;;;;5092020;28;20045;-72
2023/05/04 00:49:01;;;;;;;1.67;0.90;;;18.00;96.70;;;;;;5070114;28;20036;-72
2023/05/04 00:51:29;;;;;;;2.13;0.98;;;18.00;96.70;;;;;;5074966;28;20043;-72
2023/05/04 00:53:57;;;;;;;1.25;1.05;;;17.90;96.70;;;;;;5066004;28;20055;-72
2023/05/04 00:56:27;;;;;;;1.63;1.00;;;17.80;96.70;;;;;;5083975;28;20991;-72
2023/05/04 00:59:24;;;;;;;1.10;1.00;;;17.70;96.70;;;;;;5065203;28;20040;-72
2023/05/04 01:01:53;;;;;;;2.00;1.50;;;17.70;96.70;;;;;;5070592;28;20504;-72
2023/05/04 01:04:21;;;;;;;1.23;1.13;;;17.80;96.70;;;;;;5083015;28;20032;-72
2023/05/04 01:06:57;;;;;;;2.20;1.02;;;17.80;96.70;;;;;;5085530;28;20059;-73
2023/05/04 01:09:34;;;;;;;1.58;1.02;;;17.80;96.70;;;;;;5069052;28;20425;-72
2023/05/04 01:12:07;;;;;;;1.10;1.00;;;17.70;96.70;;;;;;5068663;28;20044;-72
2023/05/04 01:14:37;;;;;;;1.35;0.90;;;17.60;96.70;;;;;;5086582;28;20050;-72
2023/05/04 01:17:07;;;;;;;1.13;1.00;;;17.60;96.70;;;;;;5072132;28;20035;-73
2023/05/04 01:19:36;;;;;;;1.40;1.05;;;17.60;96.70;;;;;;5072376;28;20042;-72
2023/05/04 01:22:06;;;;;;;1.20;1.10;;;17.50;96.70;;;;;;5070428;28;20051;-72
2023/05/04 01:24:35;;;;;;;2.22;1.00;;;17.30;96.70;;;;;;5074495;28;20126;-73
2023/05/04 01:27:07;;;;;;;1.10;0.90;;;17.40;96.70;;;;;;5069445;28;20037;-72
2023/05/04 01:29:46;;;;;;;1.42;0.88;;;17.40;96.70;;;;;;5070376;28;20236;-72
2023/05/04 01:32:17;;;;;;;1.58;1.10;;;17.40;96.70;;;;;;5074316;28;20534;-72
2023/05/04 01:34:47;;;;;;;1.33;1.02;;;17.50;96.70;;;;;;5071167;28;20063;-72
2023/05/04 01:37:19;;;;;;;1.55;1.10;;;17.60;96.70;;;;;;5086383;28;20594;-72
2023/05/04 01:39:48;;;;;;;1.48;1.30;;;17.50;96.70;;;;;;5074806;28;20554;-72
2023/05/04 01:42:29;;;;;;;1.33;1.10;;;17.50;96.70;;;;;;5074279;28;20036;-72
2023/05/04 01:44:58;;;;;;;1.60;1.20;;;17.50;96.70;;;;;;5076524;28;20047;-72
2023/05/04 01:47:27;;;;;;;1.08;0.98;;;17.40;96.70;;;;;;5069628;28;20032;-72
2023/05/04 01:49:59;;;;;;;1.40;1.02;;;17.50;96.70;;;;;;5077450;28;20519;-72
2023/05/04 01:52:32;;;;;;;2.25;1.23;;;17.20;96.70;;;;;;5071776;28;20135;-72
2023/05/04 01:55:05;;;;;;;1.42;1.10;;;16.60;96.70;;;;;;5070682;28;20040;-72
2023/05/04 01:57:33;;;;;;;2.20;1.20;;;16.40;96.70;;;;;;5057843;28;20141;-72
2023/05/04 02:00:03;;;;;;;2.92;1.00;;;16.40;96.70;;;;;;5052175;28;20121;-72
2023/05/04 02:02:42;;;;;;;1.75;1.20;;;16.70;96.70;;;;;;5069342;28;20048;-72
2023/05/04 02:05:15;;;;;;;2.78;1.52;;;16.60;96.70;;;;;;5071927;28;20054;-72
2023/05/04 02:07:46;;;;;;;1.45;1.00;;;16.90;96.70;;;;;;5074067;28;20044;-72
2023/05/04 02:10:15;;;;;;;1.67;1.10;;;17.00;96.70;;;;;;5073239;28;20456;-72
2023/05/04 02:12:43;;;;;;;1.55;1.10;;;17.00;96.70;;;;;;5077165;28;20032;-72
2023/05/04 02:15:11;;;;;;;1.33;0.93;;;17.00;96.70;;;;;;5073040;28;20044;-72
2023/05/04 02:17:40;;;;;;;1.30;1.00;;;17.00;96.70;;;;;;5067544;28;20090;-72
2023/05/04 02:20:10;;;;;;;1.20;0.98;;;17.00;96.70;;;;;;5074132;28;20040;-72
2023/05/04 02:22:39;;;;;;;1.77;1.17;;;16.80;96.70;;;;;;5086245;28;20040;-72
2023/05/04 02:25:13;;;;;;;1.77;1.13;;;16.70;96.70;;;;;;5075165;28;20102;-72
2023/05/04 02:27:42;;;;;;;1.55;1.20;;;16.70;96.70;;;;;;5073134;28;20129;-72
2023/05/04 02:30:14;;;;;;;1.50;1.20;;;16.70;96.70;;;;;;5072052;28;20132;-72
2023/05/04 02:32:43;;;;;;;1.58;1.08;;;16.80;96.70;;;;;;5068850;28;20064;-73
2023/05/04 02:35:11;;;;;;;2.28;1.40;;;16.80;96.70;;;;;;5070431;28;20037;-71
2023/05/04 02:37:40;;;;;;;1.65;1.25;;;16.80;96.70;;;;;;5092911;27;20054;-72
2023/05/04 02:40:09;;;;;;;1.38;1.20;;;16.70;96.70;;;;;;5112404;27;20080;-72
2023/05/04 02:42:39;;;;;;;1.92;1.30;;;16.70;96.70;;;;;;5113031;27;20039;-72
2023/05/04 02:45:08;;;;;;;2.25;1.20;;;16.80;96.70;;;;;;5093285;27;20039;-72
2023/05/04 02:47:37;;;;;;;1.30;1.15;;;16.70;96.70;;;;;;5089959;28;20051;-72
2023/05/04 02:50:06;;;;;;;1.65;1.05;;;16.70;96.70;;;;;;5084319;27;20070;-72
2023/05/04 02:52:38;;;;;;;1.50;1.08;;;16.60;96.70;;;;;;5091929;27;20047;-72
2023/05/04 02:55:08;;;;;;;2.75;1.55;;;16.60;96.70;;;;;;5110517;27;20035;-72
2023/05/04 02:57:38;;;;;;;2.10;1.25;;;16.70;96.70;;;;;;5094042;28;20039;-72
2023/05/04 03:00:08;;;;;;;1.10;1.00;;;16.60;96.70;;;;;;5094542;28;20310;-72
2023/05/04 03:02:37;;;;;;;1.20;1.00;;;16.70;96.70;;;;;;5108254;28;20672;-72
2023/05/04 03:05:06;;;;;;;1.33;1.00;;;16.70;96.70;;;;;;5090635;28;20058;-72
2023/05/04 03:07:34;;;;;;;2.13;1.30;;;16.70;96.70;;;;;;5112945;28;20078;-72
2023/05/04 03:10:02;;;;;;;1.20;1.08;;;16.70;96.70;;;;;;5097097;28;20056;-72
2023/05/04 03:12:31;;;;;;;2.17;1.00;;;16.60;96.70;;;;;;5108131;28;20402;-72
2023/05/04 03:15:01;;;;;;;1.85;1.10;;;16.50;96.70;;;;;;5091829;28;20039;-72
2023/05/04 03:17:30;;;;;;;1.40;1.10;;;16.50;96.70;;;;;;5078133;28;20048;-72
2023/05/04 03:19:58;;;;;;;1.10;1.00;;;16.40;96.70;;;;;;5091217;28;20063;-72
2023/05/04 03:22:28;;;;;;;1.27;1.17;;;16.30;96.70;;;;;;5111200;27;20031;-72
2023/05/04 03:24:56;;;;;;;1.35;1.08;;;16.20;96.70;;;;;;5096941;27;20567;-72
2023/05/04 03:27:25;;;;;;;2.17;1.20;;;16.10;96.70;;;;;;5116062;27;20031;-73
2023/05/04 03:29:53;;;;;;;1.50;1.40;;;16.30;96.70;;;;;;5097238;27;20039;-73
2023/05/04 03:32:25;;;;;;;1.67;1.58;;;16.30;96.70;;;;;;5095151;27;20035;-72
2023/05/04 03:34:53;;;;;;;5.43;2.40;;;16.20;96.70;;;;;;5079360;27;20199;-72
2023/05/04 03:37:23;;;;;;;2.10;1.63;;;16.00;96.70;;;;;;5098296;27;20051;-72
2023/05/04 03:39:52;;;;;;;2.47;1.23;;;16.20;96.70;;;;;;5119945;27;20049;-72
2023/05/04 03:42:20;;;;;;;2.17;1.58;;;16.10;96.70;;;;;;5081878;27;20310;-73
2023/05/04 03:44:49;;;;;;;2.40;1.70;;;16.10;96.70;;;;;;5113513;27;21166;-72
2023/05/04 03:47:18;;;;;;;3.35;2.33;;;16.10;96.70;;;;;;5097408;27;20631;-72
2023/05/04 03:49:48;;;;;;;3.20;1.98;;;15.90;96.70;;;;;;5115243;27;20044;-73
2023/05/04 03:52:17;;;;;;;2.67;1.90;;;15.60;96.70;;;;;;5097399;27;20064;-72
2023/05/04 03:54:46;;;;;;;2.25;1.70;;;15.60;96.70;;;;;;5116057;27;20130;-72
2023/05/04 03:57:15;;;;;;;2.40;2.00;;;15.80;96.70;;;;;;5115493;27;20135;-72
2023/05/04 03:59:45;;;;;;;2.60;1.90;;;16.00;96.70;;;;;;5100190;27;20067;-72
2023/05/04 04:02:16;;;;;;;3.97;2.20;;;15.80;96.70;;;;;;5078752;27;20062;-72
2023/05/04 04:04:48;;;;;;;4.75;2.40;;;15.70;96.70;;;;;;5091476;27;20130;-72
2023/05/04 04:07:18;;;;;;;3.47;2.20;;;15.70;96.70;;;;;;5093728;27;20051;-72
2023/05/04 04:09:46;;;;;;;2.85;1.77;;;15.50;96.70;;;;;;5095439;27;20047;-72
2023/05/04 04:12:17;;;;;;;5.82;2.70;;;15.60;96.70;;;;;;5098667;27;20122;-72
2023/05/04 04:14:47;;;;;;;2.20;1.67;;;15.60;96.70;;;;;;5093464;27;21665;-72
2023/05/04 04:17:16;;;;;;;3.15;2.05;;;15.50;96.70;;;;;;5115043;27;20040;-72
2023/05/04 04:19:45;;;;;;;2.40;2.17;;;15.60;96.70;;;;;;5097866;27;20896;-72
2023/05/04 04:22:15;;;;;;;3.42;1.98;;;15.70;96.70;;;;;;5096607;27;20606;-73
2023/05/04 04:24:44;;;;;;;3.95;1.90;;;15.70;96.70;;;;;;5098564;27;20072;-72
2023/05/04 04:27:13;;;;;;;2.60;2.10;;;15.80;96.70;;;;;;5093965;27;20469;-71
2023/05/04 04:29:42;;;;;;;4.32;2.10;;;15.80;96.70;;;;;;5095626;27;20331;-72
2023/05/04 04:32:11;;;;;;;3.95;2.42;;;15.90;96.70;;;;;;5111927;27;20042;-72
2023/05/04 04:34:40;;;;;;;3.65;1.92;;;15.90;96.70;;;;;;5093182;27;20043;-72
2023/05/04 04:37:09;;;;;;;4.10;1.90;;;15.90;96.70;;;;;;5109771;27;20054;-71
2023/05/04 04:39:41;;;;;;;3.38;2.30;;;15.90;96.70;;;;;;5099741;27;20119;-72
2023/05/04 04:42:11;;;;;;;2.35;1.67;;;16.00;96.70;;;;;;5093254;27;20057;-72
2023/05/04 04:44:40;;;;;;;3.53;2.80;;;15.90;96.70;;;;;;5093705;27;20035;-72
2023/05/04 04:47:09;;;;;;;2.97;2.50;;;15.90;96.70;;;;;;5121312;27;20036;-72
2023/05/04 04:49:38;;;;;;;3.20;2.38;;;15.90;96.70;;;;;;5097033;27;20070;-73
2023/05/04 04:52:07;;;;;;;6.03;2.70;;;16.00;96.70;;;;;;5094832;27;20039;-72
2023/05/04 04:54:37;;;;;;;5.10;2.80;;;16.10;96.70;;;;;;5109220;27;20040;-72
2023/05/04 04:57:08;;;;;;;5.72;3.05;;;16.10;96.70;;;;;;5091390;27;20131;-72
2023/05/04 04:59:38;;;;;;;5.78;3.05;;;16.00;96.70;;;;;;5109173;27;20039;-73
2023/05/04 05:02:06;;;;;;;6.38;3.45;;;16.00;96.70;;;;;;5112921;27;20043;-72
2023/05/04 05:04:36;;;;;;;6.13;3.50;;;16.10;96.70;;;;;;5095281;28;20056;-72
2023/05/04 05:07:07;;;;;;;5.85;3.85;;;16.30;96.70;;;;;;5076961;27;20051;-72
2023/05/04 05:09:36;;;;;;;7.10;4.22;;;16.20;96.70;;;;;;5081366;27;20050;-73
2023/05/04 05:12:05;;;;;;;5.63;3.50;;;16.30;96.70;;;;;;5113933;27;20063;-72
2023/05/04 05:14:35;;;;;;;8.30;5.00;;;16.30;96.70;;;;;;5097283;27;20431;-72
2023/05/04 05:17:03;;;;;;;5.68;4.00;;;16.30;96.70;;;;;;5111812;27;20088;-73
2023/05/04 05:19:36;;;;;;;6.88;4.47;;;16.30;96.70;;;;;;5115436;27;20092;-73
2023/05/04 05:22:05;;;;;;;8.07;3.92;;;16.30;96.70;;;;;;5111576;27;20082;-72
2023/05/04 05:24:33;;;;;;;8.52;4.30;;;16.30;96.70;;;;;;5093145;27;20035;-73
2023/05/04 05:27:02;;;;;;;7.28;4.20;;;16.30;96.70;;;;;;5113821;27;20039;-74
2023/05/04 05:29:31;;;;;;;5.82;3.95;;;16.40;96.70;;;;;;5115286;27;20420;-72
2023/05/04 05:32:01;;;;;;;8.95;4.80;;;16.40;96.70;;;;;;5113335;27;20036;-73
2023/05/04 05:34:29;;;;;;;13.10;4.90;;;16.40;96.70;;;;;;5122600;27;20039;-72
2023/05/04 05:36:57;;;;;;;10.27;4.93;;;16.40;96.70;;;;;;5096059;27;20050;-73
2023/05/04 05:39:25;;;;;;;7.35;4.63;;;16.40;96.70;;;;;;5099668;27;20054;-73
2023/05/04 05:41:56;;;;;;;7.22;4.65;;;16.40;96.70;;;;;;5099840;28;20092;-73
2023/05/04 05:44:24;;;;;;;8.77;4.13;;;16.40;96.70;;;;;;5104098;27;20051;-73
2023/05/04 05:46:52;;;;;;;6.40;3.80;;;16.40;96.70;;;;;;5103390;27;20035;-73
2023/05/04 05:49:22;;;;;;;4.78;3.40;;;16.50;96.70;;;;;;5095711;27;20031;-74
2023/05/04 05:51:50;;;;;;;5.60;3.15;;;16.50;96.70;;;;;;5109190;27;20044;-73
2023/05/04 05:54:20;;;;;;;4.75;3.03;;;16.50;96.70;;;;;;5105088;27;20548;-74
2023/05/04 05:56:48;;;;;;;5.78;3.33;;;16.60;96.70;;;;;;5107958;27;20044;-73
2023/05/04 05:59:16;;;;;;;5.85;3.10;;;16.70;96.70;;;;;;5085864;27;20119;-74
2023/05/04 06:01:44;;;;;;;5.70;3.38;;;16.70;96.70;;;;;;5099507;27;20469;-74
2023/05/04 06:04:13;;;;;;;5.35;2.67;;;16.70;96.70;;;;;;5098251;27;20574;-73
2023/05/04 06:06:43;;;;;;;6.35;3.10;;;16.80;96.70;;;;;;5105994;27;20067;-73
2023/05/04 06:09:12;;;;;;;5.55;3.05;;;16.90;96.70;;;;;;5099943;27;20055;-72
2023/05/04 06:11:40;;;;;;;8.27;3.10;;;16.90;96.70;;;;;;5105045;27;20080;-73
2023/05/04 06:14:09;;;;;;;3.63;2.83;;;17.00;96.70;;;;;;5070264;27;20562;-73
2023/05/04 06:16:37;;;;;;;3.80;2.40;;;17.00;96.70;;;;;;5114486;27;20067;-73
2023/05/04 06:19:06;;;;;;;5.03;2.50;;;17.00;96.70;;;;;;5104483;27;20642;-72
2023/05/04 06:21:34;;;;;;;3.78;2.33;;;17.10;96.70;;;;;;5118591;27;20039;-74
2023/05/04 06:24:04;;;;;;;4.82;2.63;;;17.20;96.70;;;;;;5123302;27;20058;-74
2023/05/04 06:26:32;;;;;;;3.33;2.60;;;17.10;96.70;;;;;;5122941;27;20043;-74
2023/05/04 06:29:00;;;;;;;3.42;2.92;;;17.20;96.70;;;;;;5095926;27;20427;-74
2023/05/04 06:31:29;;;;;;;2.65;2.25;;;17.10;96.70;;;;;;5123892;27;20046;-74
2023/05/04 06:33:57;;;;;;;6.32;2.83;;;17.00;96.70;;;;;;5120475;27;20038;-73
2023/05/04 06:36:25;;;;;;;7.43;3.38;;;16.90;96.70;;;;;;5102298;27;20445;-74
2023/05/04 06:38:56;;;;;;;6.45;3.70;;;16.80;96.70;;;;;;5104872;27;20055;-74
2023/05/04 06:41:26;;;;;;;5.85;3.38;;;16.90;96.70;;;;;;5113846;27;20035;-74
2023/05/04 06:43:56;;;;;;;6.45;4.28;;;16.90;96.70;;;;;;5102004;28;20134;-74
2023/05/04 06:46:26;;;;;;;5.85;3.25;;;17.00;96.70;;;;;;5116579;27;20043;-73
2023/05/04 06:48:54;;;;;;;5.53;3.35;;;17.20;96.70;;;;;;5102932;27;20028;-74
2023/05/04 06:51:22;;;;;;;5.00;3.38;;;17.30;96.70;;;;;;5102975;27;20053;-73
2023/05/04 06:53:50;;;;;;;6.57;3.28;;;17.40;96.70;;;;;;5121616;27;20050;-73
2023/05/04 06:56:18;;;;;;;7.55;4.28;;;17.50;96.70;;;;;;5108338;27;20043;-73
2023/05/04 06:58:49;;;;;;;6.85;3.42;;;17.60;96.70;;;;;;5073349;27;20474;-73
2023/05/04 07:01:17;;;;;;;5.05;3.72;;;17.70;96.70;;;;;;5114913;27;20396;-74
2023/05/04 07:03:45;;;;;;;3.88;2.65;;;17.70;96.70;;;;;;5123847;27;20053;-75
2023/05/04 07:06:13;;;;;;;3.60;2.28;;;17.80;96.70;;;;;;5077889;28;20443;-74
2023/05/04 07:08:41;;;;;;;3.38;2.80;;;17.90;96.70;;;;;;5103838;28;20682;-74
2023/05/04 07:11:10;;;;;;;3.63;2.60;;;17.90;96.70;;;;;;5114002;28;20043;-75
2023/05/04 07:13:38;;;;;;;3.25;2.40;;;17.90;96.70;;;;;;5096120;28;20039;-74
2023/05/04 07:16:08;;;;;;;3.15;2.80;;;18.00;96.70;;;;;;5123536;27;20050;-75
2023/05/04 07:18:37;;;;;;;4.57;3.40;;;18.10;96.70;;;;;;5111226;28;20130;-73
2023/05/04 07:21:09;;;;;;;6.15;3.88;;;18.20;96.70;;;;;;5113108;28;20047;-73
2023/05/04 07:23:43;;;;;;;3.95;2.85;;;18.20;96.70;;;;;;5102114;28;20404;-75
2023/05/04 07:26:11;;;;;;;3.72;3.28;;;18.30;96.70;;;;;;5096515;28;20499;-74
2023/05/04 07:28:42;;;;;;;8.43;3.60;;;18.30;96.70;;;;;;5093482;28;20410;-73
2023/05/04 07:31:13;;;;;;;4.25;3.13;;;18.40;96.70;;;;;;5123040;28;20126;-74
2023/05/04 07:33:41;;;;;;;7.90;3.05;;;18.50;96.70;;;;;;5122908;28;20062;-74
2023/05/04 07:36:09;;;;;;;5.70;2.80;;;18.50;96.70;;;;;;5085555;28;20048;-74
2023/05/04 07:38:37;;;;;;;4.63;3.00;;;18.60;96.70;;;;;;5112204;28;20451;-75
2023/05/04 07:41:06;;;;;;;4.28;2.80;;;18.70;96.70;;;;;;5072172;28;20868;-75
2023/05/04 07:43:34;;;;;;;4.75;2.55;;;18.80;96.70;;;;;;5109007;28;20097;-74
2023/05/04 07:46:02;;;;;;;3.83;2.50;;;18.90;96.70;;;;;;5100819;28;20087;-74
2023/05/04 07:48:32;;;;;;;4.47;2.30;;;18.90;96.70;;;;;;5119375;28;20050;-73
2023/05/04 07:51:00;;;;;;;3.22;1.90;;;19.00;96.70;;;;;;5103886;28;20052;-74
2023/05/04 07:53:28;;;;;;;1.90;1.50;;;19.00;96.70;;;;;;5112039;28;20052;-73
2023/05/04 07:55:59;;;;;;;2.38;1.73;;;19.10;96.70;;;;;;5104221;27;20126;-74
2023/05/04 07:58:27;;;;;;;6.25;2.00;;;19.20;96.70;;;;;;5111728;28;20111;-75
2023/05/04 08:00:55;;;;;;;2.63;1.83;;;19.30;96.70;;;;;;5104035;28;20489;-74
2023/05/04 08:03:23;;;;;;;3.70;1.30;;;19.40;96.70;;;;;;5082393;28;20560;-73
2023/05/04 08:05:53;;;;;;;1.70;1.60;;;19.50;96.70;;;;;;5098504;28;20039;-74
2023/05/04 08:08:21;;;;;;;3.65;1.50;;;19.50;96.70;;;;;;5109543;27;20488;-73
2023/05/04 08:10:49;;;;;;;2.17;1.42;;;19.60;96.70;;;;;;5107311;27;20039;-74
2023/05/04 08:13:17;;;;;;;1.88;1.52;;;19.60;96.70;;;;;;5126044;27;20732;-74
2023/05/04 08:15:45;;;;;;;2.25;1.40;;;19.60;96.70;;;;;;5125811;27;20084;-74
2023/05/04 08:18:13;;;;;;;1.58;1.38;;;19.60;96.70;;;;;;5118543;27;20128;-74
2023/05/04 08:20:41;;;;;;;2.33;1.42;;;19.60;96.70;;;;;;5123974;27;20052;-73
2023/05/04 08:23:10;;;;;;;2.97;1.42;;;19.70;96.70;;;;;;5111036;27;20051;-73
2023/05/04 08:25:38;;;;;;;2.70;1.23;;;19.80;96.70;;;;;;5110483;27;20035;-73
2023/05/04 08:28:06;;;;;;;2.88;1.20;;;19.80;96.70;;;;;;5106978;27;20056;-74
2023/05/04 08:30:34;;;;;;;2.63;1.50;;;19.80;96.70;;;;;;5118336;27;20042;-73
2023/05/04 08:33:02;;;;;;;2.10;1.30;;;19.90;96.70;;;;;;5115223;27;20043;-74
2023/05/04 08:35:30;;;;;;;3.22;1.60;;;20.00;96.70;;;;;;5106618;27;20050;-74
2023/05/04 08:38:00;;;;;;;2.85;1.40;;;20.20;96.70;;;;;;5099341;28;20165;-74
2023/05/04 08:40:29;;;;;;;2.08;1.45;;;20.30;96.70;;;;;;5087026;28;20047;-74
2023/05/04 08:42:57;;;;;;;2.00;1.40;;;20.50;96.70;;;;;;5097578;28;20668;-74
2023/05/04 08:45:26;;;;;;;2.58;1.58;;;20.60;96.70;;;;;;5105663;27;20306;-74
2023/05/04 08:47:54;;;;;;;1.80;1.45;;;20.50;96.70;;;;;;5097887;28;20508;-74
2023/05/04 08:50:22;;;;;;;1.40;1.30;;;20.60;96.70;;;;;;5105253;28;20044;-75
2023/05/04 08:52:51;;;;;;;1.77;1.67;;;20.70;96.70;;;;;;5091692;28;20040;-74
2023/05/04 08:55:19;;;;;;;2.55;1.38;;;20.80;96.70;;;;;;5095646;28;20117;-74
2023/05/04 08:57:49;;;;;;;1.20;1.00;;;20.80;96.70;;;;;;5092575;28;20036;-74
2023/05/04 09:00:18;;;;;;;2.58;1.60;;;20.90;96.70;;;;;;5105212;28;20044;-73
2023/05/04 09:02:48;;;;;;;2.83;1.85;;;21.00;96.70;;;;;;5104462;28;20066;-73
2023/05/04 09:05:18;;;;;;;2.33;1.40;;;21.10;96.70;;;;;;5098681;27;20090;-74
2023/05/04 09:07:49;;;;;;;3.63;1.20;;;21.10;96.70;;;;;;5100844;28;20112;-74
2023/05/04 09:10:18;;;;;;;3.15;1.55;;;21.10;96.70;;;;;;5102528;28;20093;-74
2023/05/04 09:12:46;;;;;;;1.88;1.52;;;21.20;96.70;;;;;;5095349;28;20078;-74
2023/05/04 09:15:17;;;;;;;2.10;1.65;;;21.10;96.70;;;;;;5105098;28;20475;-74
2023/05/04 09:17:55;;;;;;;1.85;1.50;;;21.20;96.70;;;;;;5104746;28;21583;-74
2023/05/04 09:20:25;;;;;;;3.13;1.60;;;21.30;96.70;;;;;;5093103;28;20116;-74
2023/05/04 09:23:05;;;;;;;1.65;1.20;;;21.50;96.70;;;;;;5092876;28;20500;-74
2023/05/04 09:25:34;;;;;;;2.30;1.52;;;21.60;96.70;;;;;;5089289;28;20509;-74
2023/05/04 09:28:02;;;;;;;1.50;1.33;;;21.50;96.70;;;;;;5089621;27;20370;-74
2023/05/04 09:30:32;;;;;;;1.60;1.33;;;21.30;96.70;;;;;;5101593;28;20071;-74
2023/05/04 09:33:02;;;;;;;1.30;1.20;;;21.40;96.70;;;;;;5103097;28;20122;-73
2023/05/04 09:35:30;;;;;;;4.07;1.42;;;21.40;96.70;;;;;;5102675;28;20493;-74
2023/05/04 09:38:01;;;;;;;2.42;1.52;;;21.50;96.70;;;;;;5101754;28;20509;-74
2023/05/04 09:40:35;;;;;;;1.23;1.13;;;21.70;96.70;;;;;;5098608;28;20130;-74
2023/05/04 09:43:03;;;;;;;2.67;1.45;;;21.90;96.70;;;;;;5085399;28;20044;-74
2023/05/04 09:45:44;;;;;;;2.20;1.42;;;22.10;96.70;;;;;;5075106;28;20397;-74
2023/05/04 09:48:16;;;;;;;1.75;1.50;;;22.20;96.70;;;;;;5084681;28;20050;-74
2023/05/04 09:50:49;;;;;;;2.17;1.58;;;22.20;96.70;;;;;;5083062;28;20070;-74
2023/05/04 09:53:20;;;;;;;1.70;1.58;;;22.20;96.70;;;;;;5082139;28;20040;-74
2023/05/04 09:55:59;;;;;;;2.33;1.77;;;22.20;96.70;;;;;;5077450;28;20050;-75
2023/05/04 09:58:31;;;;;;;2.35;1.45;;;22.30;96.70;;;;;;5096938;28;20035;-74
2023/05/04 10:01:02;;;;;;;1.92;1.60;;;22.30;96.70;;;;;;5087349;28;20039;-74
2023/05/04 10:03:30;;;;;;;1.67;1.40;;;22.20;96.70;;;;;;5092086;28;20051;-74
2023/05/04 10:05:59;;;;;;;3.00;1.55;;;22.40;96.70;;;;;;5092909;28;20050;-75
2023/05/04 10:08:28;;;;;;;2.33;1.40;;;22.50;96.70;;;;;;5082485;28;20105;-74
2023/05/04 10:10:56;;;;;;;1.80;1.38;;;22.60;96.70;;;;;;5083692;28;20543;-75
2023/05/04 10:13:25;;;;;;;1.80;1.60;;;22.70;96.70;;;;;;5092388;28;20091;-74
2023/05/04 10:16:23;;;;;;;2.78;1.65;;;22.80;96.70;;;;;;5088745;28;20050;-74
2023/05/04 10:19:16;;;;;;;1.50;1.40;;;23.00;96.70;;;;;;5091249;28;20062;-74
2023/05/04 10:21:58;;;;;;;1.92;1.20;;;22.70;96.70;;;;;;5093001;28;20398;-73
2023/05/04 10:24:43;;;;;;;1.73;1.27;;;22.80;96.70;;;;;;5082535;28;20047;-74
2023/05/04 10:27:14;;;;;;;2.85;1.60;;;23.10;96.70;;;;;;5090671;28;20167;-73
2023/05/04 10:29:47;;;;;;;2.83;1.40;;;23.40;96.70;;;;;;5081675;28;20036;-74
2023/05/04 10:32:20;;;;;;;2.97;1.50;;;23.30;96.70;;;;;;5094423;28;20046;-74
2023/05/04 10:34:50;;;;;;;1.23;1.13;;;23.10;96.70;;;;;;5102509;28;20070;-73
2023/05/04 10:37:20;;;;;;;1.63;1.35;;;23.10;96.70;;;;;;5092718;28;20555;-74
2023/05/04 10:39:53;;;;;;;2.65;1.50;;;23.40;96.70;;;;;;5100290;28;20454;-73
2023/05/04 10:42:21;;;;;;;2.05;1.30;;;23.70;96.70;;;;;;5099772;28;20047;-74
2023/05/04 10:44:51;;;;;;;1.58;1.30;;;23.50;96.70;;;;;;5091399;28;20036;-75
2023/05/04 10:47:32;;;;;;;1.80;1.30;;;23.30;96.70;;;;;;5101725;28;20044;-75
2023/05/04 10:50:03;;;;;;;1.92;1.17;;;23.50;96.70;;;;;;5102994;28;20075;-76
2023/05/04 10:52:32;;;;;;;1.27;1.17;;;23.80;96.70;;;;;;5092586;28;20113;-74
2023/05/04 10:55:04;;;;;;;2.58;1.30;;;23.70;96.70;;;;;;5081498;28;20043;-74
2023/05/04 10:57:32;;;;;;;1.80;1.50;;;23.90;96.70;;;;;;5100235;28;20118;-73
2023/05/04 11:00:00;;;;;;;1.60;1.15;;;24.10;96.70;;;;;;5095939;28;20032;-73
2023/05/04 11:02:30;;;;;;;3.88;1.48;;;24.30;96.70;;;;;;5093673;28;20051;-73
2023/05/04 11:05:04;;;;;;;1.80;1.42;;;24.60;96.70;;;;;;5096720;28;21823;-73
2023/05/04 11:07:36;;;;;;;2.45;1.40;;;24.80;96.70;;;;;;5092701;28;20042;-73
2023/05/04 11:10:05;;;;;;;1.98;1.63;;;24.60;96.70;;;;;;5103531;28;20067;-73
2023/05/04 11:12:33;;;;;;;1.95;1.63;;;24.60;96.70;;;;;;5101108;28;20046;-72
2023/05/04 11:15:06;;;;;;;2.33;1.30;;;24.70;96.70;;;;;;5091267;28;20414;-72
2023/05/04 11:17:44;;;;;;;1.75;1.35;;;24.90;96.70;;;;;;5098802;28;20051;-72
2023/05/04 11:20:20;;;;;;;1.40;1.30;;;24.90;96.70;;;;;;5087803;28;20052;-72
2023/05/04 11:22:49;;;;;;;2.13;1.20;;;24.80;96.70;;;;;;5090891;28;20131;-72
2023/05/04 11:25:25;;;;;;;1.70;1.35;;;24.90;96.70;;;;;;5100623;28;20419;-72
2023/05/04 11:27:53;;;;;;;1.80;1.33;;;24.90;96.70;;;;;;5094420;28;20044;-72
2023/05/04 11:30:30;;;;;;;2.42;1.40;;;24.90;96.70;;;;;;5098773;28;20040;-73
2023/05/04 11:33:00;;;;;;;2.28;1.40;;;25.10;96.70;;;;;;5099196;28;20092;-72
2023/05/04 11:35:29;;;;;;;1.38;1.27;;;25.10;96.70;;;;;;5100437;28;20526;-72
2023/05/04 11:37:57;;;;;;;2.15;1.42;;;25.10;96.70;;;;;;5100003;28;20051;-72
2023/05/04 11:40:26;;;;;;;1.70;0.98;;;25.30;96.70;;;;;;5092430;28;20036;-72
2023/05/04 11:42:56;;;;;;;1.45;1.35;;;25.60;96.70;;;;;;5065577;28;20787;-73
2023/05/04 11:45:27;;;;;;;2.03;1.50;;;25.50;96.70;;;;;;5084985;28;20044;-73
2023/05/04 11:47:56;;;;;;;2.35;1.50;;;25.60;96.70;;;;;;5068799;28;20063;-74
2023/05/04 11:50:27;;;;;;;1.27;1.17;;;25.80;96.70;;;;;;5085056;28;20097;-73
2023/05/04 11:53:04;;;;;;;1.27;1.17;;;26.00;96.70;;;;;;5090608;28;20040;-73
2023/05/04 11:55:33;;;;;;;1.85;1.42;;;25.90;96.70;;;;;;5106349;28;20133;-73
2023/05/04 11:58:03;;;;;;;2.55;1.33;;;25.80;96.70;;;;;;5084273;28;20051;-73
2023/05/04 12:00:38;;;;;;;2.45;1.50;;;25.80;96.70;;;;;;5084367;28;20054;-74
2023/05/04 12:03:08;;;;;;;1.70;1.60;;;26.00;96.70;;;;;;5102442;28;20063;-74
2023/05/04 12:05:45;;;;;;;1.60;1.50;;;26.20;96.70;;;;;;5094874;28;20494;-73
2023/05/04 12:08:23;;;;;;;1.58;1.48;;;26.30;96.70;;;;;;5095904;28;20048;-73
2023/05/04 12:10:52;;;;;;;2.55;1.50;;;26.50;96.70;;;;;;5091893;28;20459;-75
2023/05/04 12:13:20;;;;;;;1.92;1.40;;;26.50;96.70;;;;;;5084627;28;20496;-75
2023/05/04 12:15:48;;;;;;;2.30;1.30;;;26.40;96.70;;;;;;5085034;28;20040;-73
2023/05/04 12:18:28;;;;;;;1.48;1.38;;;26.40;96.70;;;;;;5094449;28;20178;-75
2023/05/04 12:21:07;;;;;;;1.75;1.60;;;26.20;96.70;;;;;;5098816;28;20039;-74
2023/05/04 12:23:35;;;;;;;2.28;1.30;;;26.30;96.70;;;;;;5076886;28;20453;-73
2023/05/04 12:26:03;;;;;;;2.92;1.60;;;26.30;96.70;;;;;;5083158;28;20093;-75
2023/05/04 12:28:32;;;;;;;2.08;1.33;;;26.40;96.70;;;;;;5086614;28;20040;-74
2023/05/04 12:31:00;;;;;;;2.03;1.50;;;26.70;96.70;;;;;;5083063;28;20155;-75
2023/05/04 12:33:29;;;;;;;3.08;1.40;;;26.70;96.70;;;;;;5082479;28;20412;-74
2023/05/04 12:36:01;;;;;;;1.63;1.33;;;26.80;96.70;;;;;;5083694;28;20154;-74
2023/05/04 12:38:30;;;;;;;2.70;1.60;;;27.00;96.70;;;;;;5092321;28;20056;-75
2023/05/04 12:41:01;;;;;;;4.72;1.60;;;27.00;96.70;;;;;;5099375;28;20581;-76
2023/05/04 12:43:30;;;;;;;2.47;1.27;;;27.00;96.70;;;;;;5095237;28;20412;-75
2023/05/04 12:45:58;;;;;;;1.88;1.60;;;26.90;96.70;;;;;;5085470;28;20043;-75
2023/05/04 12:48:31;;;;;;;1.60;1.48;;;26.70;96.70;;;;;;5103124;28;20533;-75
2023/05/04 12:51:03;;;;;;;5.10;1.67;;;26.60;96.70;;;;;;5091631;28;20051;-74
2023/05/04 12:53:32;;;;;;;3.10;1.70;;;27.00;96.70;;;;;;5101127;28;20035;-75
2023/05/04 12:56:01;;;;;;;3.25;1.60;;;27.20;96.70;;;;;;5078103;28;20448;-74
2023/05/04 12:58:30;;;;;;;2.65;1.50;;;26.90;96.70;;;;;;5090151;28;20410;-76
2023/05/04 13:00:58;;;;;;;1.67;1.38;;;26.70;96.70;;;;;;5083241;28;20044;-74